sensor_id;sensor_type;location;lat;lon;timestamp;temperature;humidity
13049;DHT22;6591;51.446;5.404;2023-05-10T00:00:42;16.50;99.90
13049;DHT22;6591;51.446;5.404;2023-05-10T00:03:09;16.90;99.90
13049;DHT22;6591;51.446;5.404;2023-05-10T00:05:37;17.60;99.90
13049;DHT22;6591;51.446;5.404;2023-05-10T00:08:04;15.20;99.90
13049;DHT22;6591;51.446;5.404;2023-05-10T00:10:31;15.80;99.90
13049;DHT22;6591;51.446;5.404;2023-05-10T00:12:58;15.20;99.90
13049;DHT22;6591;51.446;5.404;2023-05-10T00:15:25;15.20;99.90
13049;DHT22;6591;51.446;5.404;2023-05-10T00:17:53;15.20;99.90
13049;DHT22;6591;51.446;5.404;2023-05-10T00:20:20;15.20;99.90
13049;DHT22;6591;51.446;5.404;2023-05-10T00:22:47;15.10;99.90
13049;DHT22;6591;51.446;5.404;2023-05-10T00:25:14;16.00;99.90
13049;DHT22;6591;51.446;5.404;2023-05-10T00:27:41;15.10;99.90
13049;DHT22;6591;51.446;5.404;2023-05-10T00:30:08;15.10;99.90
13049;DHT22;6591;51.446;5.404;2023-05-10T00:32:35;15.10;99.90
13049;DHT22;6591;51.446;5.404;2023-05-10T00:35:03;17.10;99.90
13049;DHT22;6591;51.446;5.404;2023-05-10T00:37:31;15.10;99.90
13049;DHT22;6591;51.446;5.404;2023-05-10T00:39:59;15.10;99.90
13049;DHT22;6591;51.446;5.404;2023-05-10T00:42:26;15.10;99.90
13049;DHT22;6591;51.446;5.404;2023-05-10T00:44:54;15.10;99.90
13049;DHT22;6591;51.446;5.404;2023-05-10T00:47:21;17.00;99.90
13049;DHT22;6591;51.446;5.404;2023-05-10T00:49:49;15.20;99.90
13049;DHT22;6591;51.446;5.404;2023-05-10T00:52:17;15.20;99.90
13049;DHT22;6591;51.446;5.404;2023-05-10T00:54:44;15.20;99.90
13049;DHT22;6591;51.446;5.404;2023-05-10T00:57:11;17.00;99.90
13049;DHT22;6591;51.446;5.404;2023-05-10T00:59:38;15.30;99.90
13049;DHT22;6591;51.446;5.404;2023-05-10T01:02:06;16.50;99.90
13049;DHT22;6591;51.446;5.404;2023-05-10T01:04:33;15.30;99.90
13049;DHT22;6591;51.446;5.404;2023-05-10T01:07:02;15.60;99.90
13049;DHT22;6591;51.446;5.404;2023-05-10T01:09:29;15.30;99.90
13049;DHT22;6591;51.446;5.404;2023-05-10T01:11:56;15.30;99.90
13049;DHT22;6591;51.446;5.404;2023-05-10T01:14:24;15.50;99.90
13049;DHT22;6591;51.446;5.404;2023-05-10T01:16:53;16.40;99.90
13049;DHT22;6591;51.446;5.404;2023-05-10T01:19:26;15.40;99.90
13049;DHT22;6591;51.446;5.404;2023-05-10T01:25:39;14.80;99.90
13049;DHT22;6591;51.446;5.404;2023-05-10T01:28:34;15.40;99.90
13049;DHT22;6591;51.446;5.404;2023-05-10T01:34:22;15.50;99.90
13049;DHT22;6591;51.446;5.404;2023-05-10T01:36:58;15.40;99.90
13049;DHT22;6591;51.446;5.404;2023-05-10T01:39:40;15.40;99.90
13049;DHT22;6591;51.446;5.404;2023-05-10T01:42:21;15.40;99.90
13049;DHT22;6591;51.446;5.404;2023-05-10T01:48:08;15.30;99.90
13049;DHT22;6591;51.446;5.404;2023-05-10T01:50:41;15.40;99.90
13049;DHT22;6591;51.446;5.404;2023-05-10T01:53:13;16.30;99.90
13049;DHT22;6591;51.446;5.404;2023-05-10T01:55:48;16.30;99.90
13049;DHT22;6591;51.446;5.404;2023-05-10T01:58:28;15.30;99.90
13049;DHT22;6591;51.446;5.404;2023-05-10T02:01:00;15.40;99.90
13049;DHT22;6591;51.446;5.404;2023-05-10T02:03:31;16.70;99.90
13049;DHT22;6591;51.446;5.404;2023-05-10T02:06:01;15.40;99.90
13049;DHT22;6591;51.446;5.404;2023-05-10T02:08:30;15.40;99.90
13049;DHT22;6591;51.446;5.404;2023-05-10T02:10:58;15.40;99.90
13049;DHT22;6591;51.446;5.404;2023-05-10T02:13:27;15.40;99.90
13049;DHT22;6591;51.446;5.404;2023-05-10T02:15:57;15.50;99.90
13049;DHT22;6591;51.446;5.404;2023-05-10T02:18:25;15.40;99.90
13049;DHT22;6591;51.446;5.404;2023-05-10T02:20:55;17.10;99.90
13049;DHT22;6591;51.446;5.404;2023-05-10T02:23:25;15.50;99.90
13049;DHT22;6591;51.446;5.404;2023-05-10T02:25:55;17.00;99.90
13049;DHT22;6591;51.446;5.404;2023-05-10T02:28:24;18.00;99.90
13049;DHT22;6591;51.446;5.404;2023-05-10T02:30:55;15.40;99.90
13049;DHT22;6591;51.446;5.404;2023-05-10T02:33:23;15.50;99.90
13049;DHT22;6591;51.446;5.404;2023-05-10T02:35:52;16.00;99.90
13049;DHT22;6591;51.446;5.404;2023-05-10T02:38:20;15.40;99.90
13049;DHT22;6591;51.446;5.404;2023-05-10T02:40:50;16.70;99.90
13049;DHT22;6591;51.446;5.404;2023-05-10T02:43:20;15.50;99.90
13049;DHT22;6591;51.446;5.404;2023-05-10T02:45:49;16.10;99.90
13049;DHT22;6591;51.446;5.404;2023-05-10T02:48:17;15.40;99.90
13049;DHT22;6591;51.446;5.404;2023-05-10T02:50:44;17.40;99.90
13049;DHT22;6591;51.446;5.404;2023-05-10T02:53:24;15.40;99.90
13049;DHT22;6591;51.446;5.404;2023-05-10T02:56:00;17.90;99.90
13049;DHT22;6591;51.446;5.404;2023-05-10T02:58:37;15.40;99.90
13049;DHT22;6591;51.446;5.404;2023-05-10T03:01:04;15.40;99.90
13049;DHT22;6591;51.446;5.404;2023-05-10T03:03:33;15.40;99.90
13049;DHT22;6591;51.446;5.404;2023-05-10T03:06:00;15.40;99.90
13049;DHT22;6591;51.446;5.404;2023-05-10T03:08:27;15.40;99.90
13049;DHT22;6591;51.446;5.404;2023-05-10T03:11:20;15.30;99.90
13049;DHT22;6591;51.446;5.404;2023-05-10T03:17:34;15.30;99.90
13049;DHT22;6591;51.446;5.404;2023-05-10T03:20:10;15.40;99.90
13049;DHT22;6591;51.446;5.404;2023-05-10T03:22:47;15.40;99.90
13049;DHT22;6591;51.446;5.404;2023-05-10T03:25:18;16.80;99.90
13049;DHT22;6591;51.446;5.404;2023-05-10T03:27:48;15.30;99.90
13049;DHT22;6591;51.446;5.404;2023-05-10T03:30:16;15.40;99.90
13049;DHT22;6591;51.446;5.404;2023-05-10T03:32:45;16.80;99.90
13049;DHT22;6591;51.446;5.404;2023-05-10T03:35:15;17.40;99.90
13049;DHT22;6591;51.446;5.404;2023-05-10T03:37:43;15.40;99.90
13049;DHT22;6591;51.446;5.404;2023-05-10T03:40:10;18.00;99.90
13049;DHT22;6591;51.446;5.404;2023-05-10T03:42:40;15.40;99.90
13049;DHT22;6591;51.446;5.404;2023-05-10T03:45:07;15.40;99.90
13049;DHT22;6591;51.446;5.404;2023-05-10T03:47:35;15.30;99.90
13049;DHT22;6591;51.446;5.404;2023-05-10T03:50:03;15.40;99.90
13049;DHT22;6591;51.446;5.404;2023-05-10T03:52:30;15.30;99.90
13049;DHT22;6591;51.446;5.404;2023-05-10T03:54:58;16.80;99.90
13049;DHT22;6591;51.446;5.404;2023-05-10T03:57:25;15.30;99.90
13049;DHT22;6591;51.446;5.404;2023-05-10T03:59:52;15.40;99.90
13049;DHT22;6591;51.446;5.404;2023-05-10T04:02:19;16.20;99.90
13049;DHT22;6591;51.446;5.404;2023-05-10T04:04:46;15.50;99.90
13049;DHT22;6591;51.446;5.404;2023-05-10T04:07:13;15.40;99.90
13049;DHT22;6591;51.446;5.404;2023-05-10T04:09:40;15.30;99.90
13049;DHT22;6591;51.446;5.404;2023-05-10T04:12:07;17.70;99.90
13049;DHT22;6591;51.446;5.404;2023-05-10T04:14:36;15.40;99.90
13049;DHT22;6591;51.446;5.404;2023-05-10T04:17:03;15.30;99.90
13049;DHT22;6591;51.446;5.404;2023-05-10T04:19:31;15.30;99.90
13049;DHT22;6591;51.446;5.404;2023-05-10T04:21:59;15.40;99.90
13049;DHT22;6591;51.446;5.404;2023-05-10T04:24:26;17.30;99.90
13049;DHT22;6591;51.446;5.404;2023-05-10T04:26:54;15.30;99.90
13049;DHT22;6591;51.446;5.404;2023-05-10T04:29:23;15.30;99.90
13049;DHT22;6591;51.446;5.404;2023-05-10T04:31:50;15.30;99.90
13049;DHT22;6591;51.446;5.404;2023-05-10T04:34:17;15.30;99.90
13049;DHT22;6591;51.446;5.404;2023-05-10T04:36:45;16.40;99.90
13049;DHT22;6591;51.446;5.404;2023-05-10T04:39:12;15.50;99.90
13049;DHT22;6591;51.446;5.404;2023-05-10T04:41:40;17.30;99.90
13049;DHT22;6591;51.446;5.404;2023-05-10T04:44:07;16.40;99.90
13049;DHT22;6591;51.446;5.404;2023-05-10T04:46:34;16.20;99.90
13049;DHT22;6591;51.446;5.404;2023-05-10T04:49:01;15.30;99.90
13049;DHT22;6591;51.446;5.404;2023-05-10T04:51:28;18.00;99.90
13049;DHT22;6591;51.446;5.404;2023-05-10T04:53:55;16.20;99.90
13049;DHT22;6591;51.446;5.404;2023-05-10T04:56:32;17.30;99.90
13049;DHT22;6591;51.446;5.404;2023-05-10T04:59:00;15.40;99.90
13049;DHT22;6591;51.446;5.404;2023-05-10T05:01:27;15.40;99.90
13049;DHT22;6591;51.446;5.404;2023-05-10T05:03:54;15.20;99.90
13049;DHT22;6591;51.446;5.404;2023-05-10T05:06:21;15.60;99.90
13049;DHT22;6591;51.446;5.404;2023-05-10T05:08:48;15.20;99.90
13049;DHT22;6591;51.446;5.404;2023-05-10T05:11:17;15.10;99.90
13049;DHT22;6591;51.446;5.404;2023-05-10T05:13:44;15.20;99.90
13049;DHT22;6591;51.446;5.404;2023-05-10T05:16:11;15.20;99.90
13049;DHT22;6591;51.446;5.404;2023-05-10T05:18:38;16.00;99.90
13049;DHT22;6591;51.446;5.404;2023-05-10T05:21:18;15.20;99.90
13049;DHT22;6591;51.446;5.404;2023-05-10T05:23:46;15.90;99.90
13049;DHT22;6591;51.446;5.404;2023-05-10T05:26:13;15.30;99.90
13049;DHT22;6591;51.446;5.404;2023-05-10T05:28:41;17.90;99.90
13049;DHT22;6591;51.446;5.404;2023-05-10T05:31:09;15.30;99.90
13049;DHT22;6591;51.446;5.404;2023-05-10T05:33:36;17.40;99.90
13049;DHT22;6591;51.446;5.404;2023-05-10T05:36:05;15.30;99.90
13049;DHT22;6591;51.446;5.404;2023-05-10T05:38:32;15.30;99.90
13049;DHT22;6591;51.446;5.404;2023-05-10T05:40:59;17.10;99.90
13049;DHT22;6591;51.446;5.404;2023-05-10T05:43:27;16.90;99.90
13049;DHT22;6591;51.446;5.404;2023-05-10T05:45:54;15.40;99.90
13049;DHT22;6591;51.446;5.404;2023-05-10T05:48:21;15.40;99.90
13049;DHT22;6591;51.446;5.404;2023-05-10T05:50:48;15.50;99.90
13049;DHT22;6591;51.446;5.404;2023-05-10T05:53:15;15.50;99.90
13049;DHT22;6591;51.446;5.404;2023-05-10T05:55:53;16.50;99.90
13049;DHT22;6591;51.446;5.404;2023-05-10T05:58:22;16.60;99.90
13049;DHT22;6591;51.446;5.404;2023-05-10T06:00:51;15.50;99.90
13049;DHT22;6591;51.446;5.404;2023-05-10T06:03:19;15.60;99.90
13049;DHT22;6591;51.446;5.404;2023-05-10T06:05:46;18.30;99.90
13049;DHT22;6591;51.446;5.404;2023-05-10T06:08:14;15.70;99.90
13049;DHT22;6591;51.446;5.404;2023-05-10T06:10:41;17.50;99.90
13049;DHT22;6591;51.446;5.404;2023-05-10T06:13:08;15.80;99.90
13049;DHT22;6591;51.446;5.404;2023-05-10T06:15:35;15.80;99.90
13049;DHT22;6591;51.446;5.404;2023-05-10T06:18:02;15.90;99.90
13049;DHT22;6591;51.446;5.404;2023-05-10T06:20:29;15.90;99.90
13049;DHT22;6591;51.446;5.404;2023-05-10T06:22:58;16.70;99.90
13049;DHT22;6591;51.446;5.404;2023-05-10T06:25:25;16.00;99.90
13049;DHT22;6591;51.446;5.404;2023-05-10T06:27:52;16.10;99.90
13049;DHT22;6591;51.446;5.404;2023-05-10T06:30:25;16.10;99.90
13049;DHT22;6591;51.446;5.404;2023-05-10T06:32:56;16.20;99.90
13049;DHT22;6591;51.446;5.404;2023-05-10T06:35:23;16.20;99.90
13049;DHT22;6591;51.446;5.404;2023-05-10T06:37:50;16.20;99.90
13049;DHT22;6591;51.446;5.404;2023-05-10T06:40:18;16.30;99.90
13049;DHT22;6591;51.446;5.404;2023-05-10T06:42:46;16.30;99.90
13049;DHT22;6591;51.446;5.404;2023-05-10T06:45:15;16.40;99.90
13049;DHT22;6591;51.446;5.404;2023-05-10T06:47:43;16.50;99.90
13049;DHT22;6591;51.446;5.404;2023-05-10T06:50:10;16.50;99.90
13049;DHT22;6591;51.446;5.404;2023-05-10T06:52:38;16.50;99.90
13049;DHT22;6591;51.446;5.404;2023-05-10T06:55:06;16.60;99.90
13049;DHT22;6591;51.446;5.404;2023-05-10T06:57:33;16.60;99.90
13049;DHT22;6591;51.446;5.404;2023-05-10T07:00:01;16.70;99.90
13049;DHT22;6591;51.446;5.404;2023-05-10T07:02:30;16.80;99.90
13049;DHT22;6591;51.446;5.404;2023-05-10T07:04:58;16.80;99.90
13049;DHT22;6591;51.446;5.404;2023-05-10T07:07:28;18.50;99.90
13049;DHT22;6591;51.446;5.404;2023-05-10T07:09:55;18.70;99.90
13049;DHT22;6591;51.446;5.404;2023-05-10T07:12:24;17.00;99.90
13049;DHT22;6591;51.446;5.404;2023-05-10T07:14:52;17.00;99.90
13049;DHT22;6591;51.446;5.404;2023-05-10T07:17:19;17.00;99.90
13049;DHT22;6591;51.446;5.404;2023-05-10T07:19:46;17.00;99.90
13049;DHT22;6591;51.446;5.404;2023-05-10T07:22:14;18.20;99.90
13049;DHT22;6591;51.446;5.404;2023-05-10T07:24:41;17.00;99.90
13049;DHT22;6591;51.446;5.404;2023-05-10T07:27:08;17.00;99.90
13049;DHT22;6591;51.446;5.404;2023-05-10T07:29:36;17.00;99.90
13049;DHT22;6591;51.446;5.404;2023-05-10T07:32:04;18.50;99.90
13049;DHT22;6591;51.446;5.404;2023-05-10T07:34:32;17.00;99.90
13049;DHT22;6591;51.446;5.404;2023-05-10T07:36:59;17.00;99.90
13049;DHT22;6591;51.446;5.404;2023-05-10T07:39:29;17.20;99.90
13049;DHT22;6591;51.446;5.404;2023-05-10T07:41:56;17.10;99.90
13049;DHT22;6591;51.446;5.404;2023-05-10T07:44:23;17.10;99.90
13049;DHT22;6591;51.446;5.404;2023-05-10T07:46:50;17.10;99.90
13049;DHT22;6591;51.446;5.404;2023-05-10T07:49:17;17.20;99.90
13049;DHT22;6591;51.446;5.404;2023-05-10T07:51:44;17.10;99.90
13049;DHT22;6591;51.446;5.404;2023-05-10T07:54:11;18.20;99.90
13049;DHT22;6591;51.446;5.404;2023-05-10T07:56:39;17.10;99.90
13049;DHT22;6591;51.446;5.404;2023-05-10T07:59:15;17.00;99.90
13049;DHT22;6591;51.446;5.404;2023-05-10T08:01:44;16.90;99.90
13049;DHT22;6591;51.446;5.404;2023-05-10T08:04:11;17.80;99.90
13049;DHT22;6591;51.446;5.404;2023-05-10T08:06:39;16.90;99.90
13049;DHT22;6591;51.446;5.404;2023-05-10T08:09:08;16.90;99.90
13049;DHT22;6591;51.446;5.404;2023-05-10T08:11:35;19.40;99.90
13049;DHT22;6591;51.446;5.404;2023-05-10T08:14:02;18.00;99.90
13049;DHT22;6591;51.446;5.404;2023-05-10T08:16:29;18.70;99.90
13049;DHT22;6591;51.446;5.404;2023-05-10T08:18:56;17.00;99.90
13049;DHT22;6591;51.446;5.404;2023-05-10T08:21:23;18.10;99.90
13049;DHT22;6591;51.446;5.404;2023-05-10T08:23:51;17.10;99.90
13049;DHT22;6591;51.446;5.404;2023-05-10T08:26:18;16.90;99.90
13049;DHT22;6591;51.446;5.404;2023-05-10T08:28:45;18.50;99.90
13049;DHT22;6591;51.446;5.404;2023-05-10T08:31:12;17.00;99.90
13049;DHT22;6591;51.446;5.404;2023-05-10T08:33:39;17.00;99.90
13049;DHT22;6591;51.446;5.404;2023-05-10T08:36:08;17.30;99.90
13049;DHT22;6591;51.446;5.404;2023-05-10T08:38:36;17.10;99.90
13049;DHT22;6591;51.446;5.404;2023-05-10T08:41:05;17.00;99.90
13049;DHT22;6591;51.446;5.404;2023-05-10T08:43:33;17.60;99.90
13049;DHT22;6591;51.446;5.404;2023-05-10T08:46:04;18.50;99.90
13049;DHT22;6591;51.446;5.404;2023-05-10T08:48:34;17.20;99.90
13049;DHT22;6591;51.446;5.404;2023-05-10T08:51:03;19.40;99.90
13049;DHT22;6591;51.446;5.404;2023-05-10T08:53:33;18.80;99.90
13049;DHT22;6591;51.446;5.404;2023-05-10T08:56:03;17.50;99.90
13049;DHT22;6591;51.446;5.404;2023-05-10T08:58:31;17.60;99.90
13049;DHT22;6591;51.446;5.404;2023-05-10T09:00:59;19.30;99.90
13049;DHT22;6591;51.446;5.404;2023-05-10T09:03:27;17.80;99.90
13049;DHT22;6591;51.446;5.404;2023-05-10T09:05:55;17.90;99.90
13049;DHT22;6591;51.446;5.404;2023-05-10T09:08:26;19.40;99.90
13049;DHT22;6591;51.446;5.404;2023-05-10T09:10:55;18.40;99.90
13049;DHT22;6591;51.446;5.404;2023-05-10T09:13:23;18.50;99.90
13049;DHT22;6591;51.446;5.404;2023-05-10T09:15:51;20.20;99.90
13049;DHT22;6591;51.446;5.404;2023-05-10T09:18:19;19.10;99.90
13049;DHT22;6591;51.446;5.404;2023-05-10T09:20:46;19.60;99.90
13049;DHT22;6591;51.446;5.404;2023-05-10T09:23:15;20.00;99.90
13049;DHT22;6591;51.446;5.404;2023-05-10T09:25:42;19.80;99.90
13049;DHT22;6591;51.446;5.404;2023-05-10T09:28:11;21.30;99.90
13049;DHT22;6591;51.446;5.404;2023-05-10T09:30:38;20.30;99.90
13049;DHT22;6591;51.446;5.404;2023-05-10T09:33:06;20.50;99.90
13049;DHT22;6591;51.446;5.404;2023-05-10T09:35:33;20.70;99.90
13049;DHT22;6591;51.446;5.404;2023-05-10T09:38:04;21.40;99.90
13049;DHT22;6591;51.446;5.404;2023-05-10T09:40:32;21.10;99.90
13049;DHT22;6591;51.446;5.404;2023-05-10T09:43:00;21.00;99.90
13049;DHT22;6591;51.446;5.404;2023-05-10T09:45:34;21.10;99.90
13049;DHT22;6591;51.446;5.404;2023-05-10T09:48:05;22.00;99.90
13049;DHT22;6591;51.446;5.404;2023-05-10T09:50:33;21.10;99.90
13049;DHT22;6591;51.446;5.404;2023-05-10T09:53:03;21.00;99.90
13049;DHT22;6591;51.446;5.404;2023-05-10T09:55:42;21.00;99.90
13049;DHT22;6591;51.446;5.404;2023-05-10T09:58:13;21.70;99.90
13049;DHT22;6591;51.446;5.404;2023-05-10T10:00:42;20.80;99.90
13049;DHT22;6591;51.446;5.404;2023-05-10T10:03:15;20.80;99.90
13049;DHT22;6591;51.446;5.404;2023-05-10T10:05:44;21.80;99.90
13049;DHT22;6591;51.446;5.404;2023-05-10T10:08:13;20.60;99.90
13049;DHT22;6591;51.446;5.404;2023-05-10T10:10:41;20.70;99.90
13049;DHT22;6591;51.446;5.404;2023-05-10T10:13:12;20.60;99.90
13049;DHT22;6591;51.446;5.404;2023-05-10T10:15:39;20.60;99.90
13049;DHT22;6591;51.446;5.404;2023-05-10T10:18:13;20.60;99.90
13049;DHT22;6591;51.446;5.404;2023-05-10T10:20:42;23.20;99.90
13049;DHT22;6591;51.446;5.404;2023-05-10T10:23:09;20.80;99.90
13049;DHT22;6591;51.446;5.404;2023-05-10T10:25:37;20.90;99.90
13049;DHT22;6591;51.446;5.404;2023-05-10T10:30:55;21.20;99.90
13049;DHT22;6591;51.446;5.404;2023-05-10T10:33:47;21.40;99.90
13049;DHT22;6591;51.446;5.404;2023-05-10T10:36:23;21.50;99.90
13049;DHT22;6591;51.446;5.404;2023-05-10T10:41:32;21.80;99.90
13049;DHT22;6591;51.446;5.404;2023-05-10T10:49:51;21.90;99.90
13049;DHT22;6591;51.446;5.404;2023-05-10T10:52:32;21.80;99.90
13049;DHT22;6591;51.446;5.404;2023-05-10T10:55:20;21.70;99.90
13049;DHT22;6591;51.446;5.404;2023-05-10T10:57:56;21.70;99.90
13049;DHT22;6591;51.446;5.404;2023-05-10T11:00:37;23.30;99.90
13049;DHT22;6591;51.446;5.404;2023-05-10T11:03:09;21.70;99.90
13049;DHT22;6591;51.446;5.404;2023-05-10T11:05:47;21.70;99.90
13049;DHT22;6591;51.446;5.404;2023-05-10T11:08:29;22.50;99.90
13049;DHT22;6591;51.446;5.404;2023-05-10T11:11:13;21.70;99.90
13049;DHT22;6591;51.446;5.404;2023-05-10T11:14:06;20.30;99.90
13049;DHT22;6591;51.446;5.404;2023-05-10T11:16:44;21.70;99.90
13049;DHT22;6591;51.446;5.404;2023-05-10T11:19:13;21.50;99.90
13049;DHT22;6591;51.446;5.404;2023-05-10T11:21:49;21.40;99.90
13049;DHT22;6591;51.446;5.404;2023-05-10T11:24:31;21.20;99.90
13049;DHT22;6591;51.446;5.404;2023-05-10T11:27:00;21.00;99.90
13049;DHT22;6591;51.446;5.404;2023-05-10T11:29:27;20.80;99.90
13049;DHT22;6591;51.446;5.404;2023-05-10T11:31:58;20.60;99.90
13049;DHT22;6591;51.446;5.404;2023-05-10T11:34:28;20.50;99.90
13049;DHT22;6591;51.446;5.404;2023-05-10T11:37:02;20.30;99.90
13049;DHT22;6591;51.446;5.404;2023-05-10T11:39:30;20.20;99.90
13049;DHT22;6591;51.446;5.404;2023-05-10T11:41:58;20.20;99.90
13049;DHT22;6591;51.446;5.404;2023-05-10T11:44:30;20.00;99.90
13049;DHT22;6591;51.446;5.404;2023-05-10T11:47:02;19.90;99.90
13049;DHT22;6591;51.446;5.404;2023-05-10T11:49:30;19.80;99.90
13049;DHT22;6591;51.446;5.404;2023-05-10T11:52:05;19.70;99.90
13049;DHT22;6591;51.446;5.404;2023-05-10T11:54:35;19.60;99.90
13049;DHT22;6591;51.446;5.404;2023-05-10T11:57:03;18.60;99.90
13049;DHT22;6591;51.446;5.404;2023-05-10T11:59:30;19.40;99.90
13049;DHT22;6591;51.446;5.404;2023-05-10T12:01:57;19.20;99.90
13049;DHT22;6591;51.446;5.404;2023-05-10T12:04:24;20.40;99.90
13049;DHT22;6591;51.446;5.404;2023-05-10T12:06:52;19.00;99.90
13049;DHT22;6591;51.446;5.404;2023-05-10T12:09:19;18.90;99.90
13049;DHT22;6591;51.446;5.404;2023-05-10T12:12:06;18.80;99.90
13049;DHT22;6591;51.446;5.404;2023-05-10T12:14:36;18.70;99.90
13049;DHT22;6591;51.446;5.404;2023-05-10T12:17:03;18.60;99.90
13049;DHT22;6591;51.446;5.404;2023-05-10T12:19:37;18.60;99.90
13049;DHT22;6591;51.446;5.404;2023-05-10T12:22:06;18.60;99.90
13049;DHT22;6591;51.446;5.404;2023-05-10T12:24:36;18.60;99.90
13049;DHT22;6591;51.446;5.404;2023-05-10T12:27:05;19.40;99.90
13049;DHT22;6591;51.446;5.404;2023-05-10T12:29:35;18.50;99.90
13049;DHT22;6591;51.446;5.404;2023-05-10T12:32:02;18.30;99.90
13049;DHT22;6591;51.446;5.404;2023-05-10T12:34:34;18.20;99.90
13049;DHT22;6591;51.446;5.404;2023-05-10T12:37:03;18.00;99.90
13049;DHT22;6591;51.446;5.404;2023-05-10T12:39:41;18.90;99.90
13049;DHT22;6591;51.446;5.404;2023-05-10T12:42:10;17.70;99.90
13049;DHT22;6591;51.446;5.404;2023-05-10T12:44:38;17.60;99.90
13049;DHT22;6591;51.446;5.404;2023-05-10T12:47:05;18.10;99.90
13049;DHT22;6591;51.446;5.404;2023-05-10T12:49:32;17.50;99.90
13049;DHT22;6591;51.446;5.404;2023-05-10T12:52:00;17.30;99.90
13049;DHT22;6591;51.446;5.404;2023-05-10T12:54:27;18.10;99.90
13049;DHT22;6591;51.446;5.404;2023-05-10T12:56:54;17.10;99.90
13049;DHT22;6591;51.446;5.404;2023-05-10T12:59:21;18.20;99.90
13049;DHT22;6591;51.446;5.404;2023-05-10T13:01:49;17.00;99.90
13049;DHT22;6591;51.446;5.404;2023-05-10T13:04:16;17.60;99.90
13049;DHT22;6591;51.446;5.404;2023-05-10T13:06:43;18.10;99.90
13049;DHT22;6591;51.446;5.404;2023-05-10T13:09:11;16.80;99.90
13049;DHT22;6591;51.446;5.404;2023-05-10T13:11:38;18.50;99.90
13049;DHT22;6591;51.446;5.404;2023-05-10T13:14:05;16.70;99.90
13049;DHT22;6591;51.446;5.404;2023-05-10T13:16:32;17.70;99.90
13049;DHT22;6591;51.446;5.404;2023-05-10T13:18:59;16.70;99.90
13049;DHT22;6591;51.446;5.404;2023-05-10T13:21:26;16.70;99.90
13049;DHT22;6591;51.446;5.404;2023-05-10T13:23:53;16.70;99.90
13049;DHT22;6591;51.446;5.404;2023-05-10T13:26:21;16.70;99.90
13049;DHT22;6591;51.446;5.404;2023-05-10T13:28:48;16.70;99.90
13049;DHT22;6591;51.446;5.404;2023-05-10T13:31:16;18.20;99.90
13049;DHT22;6591;51.446;5.404;2023-05-10T13:33:43;16.70;99.90
13049;DHT22;6591;51.446;5.404;2023-05-10T13:36:10;16.70;99.90
13049;DHT22;6591;51.446;5.404;2023-05-10T13:38:37;16.70;99.90
13049;DHT22;6591;51.446;5.404;2023-05-10T13:41:04;16.70;99.90
13049;DHT22;6591;51.446;5.404;2023-05-10T13:43:31;16.60;99.90
13049;DHT22;6591;51.446;5.404;2023-05-10T13:45:58;17.30;99.90
13049;DHT22;6591;51.446;5.404;2023-05-10T13:48:25;16.40;99.90
13049;DHT22;6591;51.446;5.404;2023-05-10T13:50:53;16.20;99.90
13049;DHT22;6591;51.446;5.404;2023-05-10T13:53:20;16.20;99.90
13049;DHT22;6591;51.446;5.404;2023-05-10T13:55:48;17.80;99.90
13049;DHT22;6591;51.446;5.404;2023-05-10T13:58:15;16.90;99.90
13049;DHT22;6591;51.446;5.404;2023-05-10T14:00:42;16.80;99.90
13049;DHT22;6591;51.446;5.404;2023-05-10T14:03:09;18.10;99.90
13049;DHT22;6591;51.446;5.404;2023-05-10T14:05:38;17.50;99.90
13049;DHT22;6591;51.446;5.404;2023-05-10T14:08:05;16.70;99.90
13049;DHT22;6591;51.446;5.404;2023-05-10T14:10:32;15.50;99.90
13049;DHT22;6591;51.446;5.404;2023-05-10T14:12:59;15.80;99.90
13049;DHT22;6591;51.446;5.404;2023-05-10T14:15:26;17.30;99.90
13049;DHT22;6591;51.446;5.404;2023-05-10T14:17:53;15.40;99.90
13049;DHT22;6591;51.446;5.404;2023-05-10T14:20:20;17.80;99.90
13049;DHT22;6591;51.446;5.404;2023-05-10T14:22:47;17.30;99.90
13049;DHT22;6591;51.446;5.404;2023-05-10T14:25:14;16.40;99.90
13049;DHT22;6591;51.446;5.404;2023-05-10T14:27:42;15.30;99.90
13049;DHT22;6591;51.446;5.404;2023-05-10T14:30:09;16.50;99.90
13049;DHT22;6591;51.446;5.404;2023-05-10T14:32:36;15.20;99.90
13049;DHT22;6591;51.446;5.404;2023-05-10T14:35:04;15.20;99.90
13049;DHT22;6591;51.446;5.404;2023-05-10T14:37:32;15.10;99.90
13049;DHT22;6591;51.446;5.404;2023-05-10T14:40:00;15.10;99.90
13049;DHT22;6591;51.446;5.404;2023-05-10T14:42:27;15.10;99.90
13049;DHT22;6591;51.446;5.404;2023-05-10T14:44:55;15.20;99.90
13049;DHT22;6591;51.446;5.404;2023-05-10T14:47:22;15.10;99.90
13049;DHT22;6591;51.446;5.404;2023-05-10T14:49:49;16.70;99.90
13049;DHT22;6591;51.446;5.404;2023-05-10T14:52:16;15.10;99.90
13049;DHT22;6591;51.446;5.404;2023-05-10T14:54:43;15.20;99.90
13049;DHT22;6591;51.446;5.404;2023-05-10T14:57:10;15.20;99.90
13049;DHT22;6591;51.446;5.404;2023-05-10T14:59:37;17.50;99.90
13049;DHT22;6591;51.446;5.404;2023-05-10T15:02:04;17.10;99.90
13049;DHT22;6591;51.446;5.404;2023-05-10T15:04:32;18.10;99.90
13049;DHT22;6591;51.446;5.404;2023-05-10T15:06:59;15.20;99.90
13049;DHT22;6591;51.446;5.404;2023-05-10T15:09:27;16.40;99.90
13049;DHT22;6591;51.446;5.404;2023-05-10T15:11:55;15.40;99.90
13049;DHT22;6591;51.446;5.404;2023-05-10T15:14:22;15.30;99.90
13049;DHT22;6591;51.446;5.404;2023-05-10T15:16:49;15.20;99.90
13049;DHT22;6591;51.446;5.404;2023-05-10T15:19:16;17.20;99.90
13049;DHT22;6591;51.446;5.404;2023-05-10T15:21:43;16.90;99.90
13049;DHT22;6591;51.446;5.404;2023-05-10T15:24:11;15.30;99.90
13049;DHT22;6591;51.446;5.404;2023-05-10T15:26:38;15.40;99.90
13049;DHT22;6591;51.446;5.404;2023-05-10T15:29:05;16.40;99.90
13049;DHT22;6591;51.446;5.404;2023-05-10T15:31:32;16.70;99.90
13049;DHT22;6591;51.446;5.404;2023-05-10T15:34:01;16.10;99.90
13049;DHT22;6591;51.446;5.404;2023-05-10T15:36:28;15.40;99.90
13049;DHT22;6591;51.446;5.404;2023-05-10T15:38:56;16.30;99.90
13049;DHT22;6591;51.446;5.404;2023-05-10T15:41:23;15.40;99.90
13049;DHT22;6591;51.446;5.404;2023-05-10T15:43:51;15.80;99.90
13049;DHT22;6591;51.446;5.404;2023-05-10T15:46:18;15.40;99.90
13049;DHT22;6591;51.446;5.404;2023-05-10T15:48:45;15.60;99.90
13049;DHT22;6591;51.446;5.404;2023-05-10T15:51:12;15.40;99.90
13049;DHT22;6591;51.446;5.404;2023-05-10T15:53:39;16.60;99.90
13049;DHT22;6591;51.446;5.404;2023-05-10T15:56:18;16.60;99.90
13049;DHT22;6591;51.446;5.404;2023-05-10T15:58:45;15.60;99.90
13049;DHT22;6591;51.446;5.404;2023-05-10T16:01:12;16.70;99.90
13049;DHT22;6591;51.446;5.404;2023-05-10T16:03:40;15.90;99.90
13049;DHT22;6591;51.446;5.404;2023-05-10T16:06:07;15.60;99.90
13049;DHT22;6591;51.446;5.404;2023-05-10T16:08:34;17.40;99.90
13049;DHT22;6591;51.446;5.404;2023-05-10T16:11:01;15.50;99.90
13049;DHT22;6591;51.446;5.404;2023-05-10T16:13:29;15.50;99.90
13049;DHT22;6591;51.446;5.404;2023-05-10T16:15:56;15.50;99.90
13049;DHT22;6591;51.446;5.404;2023-05-10T16:18:24;15.60;99.90
13049;DHT22;6591;51.446;5.404;2023-05-10T16:20:52;16.60;99.90